Time;durP1;ratioP1;P1;durP2;ratioP2;P2;SDS_P1;SDS_P2;PMS_P1;PMS_P2;Temp;Humidity;BMP_temperature;BMP_pressure;BME280_temperature;BME280_humidity;BME280_pressure;Samples;Min_cycle;Max_cycle;Signal;HPM_P1;HPM_P2
2024/01/23 00:00:28;;;;;;;;;;;6.60;99.90;;;;;;4917541;28;20546;-68
2024/01/23 00:02:54;;;;;;;;;;;6.60;99.90;;;;;;4969723;28;20009;-67
2024/01/23 00:05:20;;;;;;;;;;;6.50;99.90;;;;;;4932918;28;20000;-67
2024/01/23 00:07:46;;;;;;;;;;;6.50;99.90;;;;;;4943136;28;19932;-66
2024/01/23 00:10:11;;;;;;;;;;;6.50;99.90;;;;;;4932785;28;19932;-66
2024/01/23 00:12:37;;;;;;;;;;;6.40;99.90;;;;;;4975262;28;19925;-67
2024/01/23 00:15:03;;;;;;;;;;;6.40;99.90;;;;;;4929567;28;19933;-67
2024/01/23 00:17:29;;;;;;;;;;;6.40;99.90;;;;;;4928056;28;20983;-66
2024/01/23 00:19:55;;;;;;;;;;;6.40;99.90;;;;;;4941104;28;19926;-66
2024/01/23 00:22:21;;;;;;;;;;;6.30;99.90;;;;;;4939561;28;19930;-66
2024/01/23 00:24:47;;;;;;;;;;;6.30;99.90;;;;;;4957429;28;20496;-66
2024/01/23 00:27:13;;;;;;;;;;;6.30;99.90;;;;;;4933971;28;19929;-68
2024/01/23 00:29:39;;;;;;;;;;;6.30;99.90;;;;;;4942680;28;19933;-67
2024/01/23 00:32:05;;;;;;;;;;;6.30;99.90;;;;;;4934603;28;19961;-66
2024/01/23 00:34:31;;;;;;;;;;;6.30;99.90;;;;;;4940222;28;19926;-67
2024/01/23 00:36:58;;;;;;;;;;;6.30;99.90;;;;;;4938633;28;19929;-66
2024/01/23 00:39:24;;;;;;;;;;;6.30;99.90;;;;;;4957580;28;19933;-66
2024/01/23 00:41:50;;;;;;;;;;;6.30;99.90;;;;;;4944273;28;19937;-67
2024/01/23 00:44:16;;;;;;;;;;;6.30;99.90;;;;;;4962118;28;19926;-66
2024/01/23 00:46:42;;;;;;;;;;;6.40;99.90;;;;;;4928916;28;19931;-66
2024/01/23 00:49:08;;;;;;;;;;;6.40;99.90;;;;;;4958524;28;19933;-66
2024/01/23 00:51:34;;;;;;;;;;;6.50;99.90;;;;;;4897633;28;19926;-66
2024/01/23 00:54:00;;;;;;;;;;;6.50;99.90;;;;;;4938018;28;20756;-67
2024/01/23 00:56:26;;;;;;;;;;;6.40;99.90;;;;;;4888470;28;20977;-67
2024/01/23 00:58:52;;;;;;;;;;;6.50;99.90;;;;;;4941266;28;20036;-68
2024/01/23 01:01:18;;;;;;;;;;;6.40;99.90;;;;;;4915681;28;19937;-67
2024/01/23 01:03:44;;;;;;;;;;;6.40;99.90;;;;;;4944335;28;20940;-67
2024/01/23 01:06:10;;;;;;;;;;;6.50;99.90;;;;;;4927525;28;20144;-67
2024/01/23 01:08:35;;;;;;;;;;;6.50;99.90;;;;;;4953032;28;19926;-66
2024/01/23 01:11:01;;;;;;;;;;;6.50;99.90;;;;;;4927807;28;20028;-67
2024/01/23 01:13:27;;;;;;;;;;;6.60;99.90;;;;;;4954485;28;19930;-67
2024/01/23 01:15:53;;;;;;;;;;;6.50;99.90;;;;;;4920440;28;19937;-67
2024/01/23 01:18:19;;;;;;;;;;;6.60;99.90;;;;;;4951565;28;19930;-67
2024/01/23 01:20:45;;;;;;;;;;;6.60;99.90;;;;;;4947638;28;20597;-66
2024/01/23 01:23:12;;;;;;;;;;;6.50;99.90;;;;;;4962119;28;19930;-66
2024/01/23 01:25:43;;;;;;;;;;;6.50;99.90;;;;;;4921502;28;19933;-67
2024/01/23 01:28:09;;;;;;;;;;;6.50;99.90;;;;;;4962498;28;19930;-67
2024/01/23 01:30:34;;;;;;;;;;;6.40;99.90;;;;;;4921665;28;20399;-66
2024/01/23 01:33:00;;;;;;;;;;;6.50;99.90;;;;;;4965100;28;19925;-66
2024/01/23 01:35:26;;;;;;;;;;;6.50;99.90;;;;;;4934430;28;20384;-66
2024/01/23 01:37:52;;;;;;;;;;;6.40;99.90;;;;;;4962478;28;19926;-66
2024/01/23 01:40:18;;;;;;;;;;;6.40;99.90;;;;;;4930708;28;20498;-67
2024/01/23 01:42:44;;;;;;;;;;;6.50;99.90;;;;;;4958605;28;20043;-67
2024/01/23 01:45:10;;;;;;;;;;;6.50;99.90;;;;;;4918304;28;19926;-67
2024/01/23 01:47:38;;;;;;;;;;;6.40;99.90;;;;;;4976869;28;19949;-67
2024/01/23 01:50:05;;;;;;;;;;;6.30;99.90;;;;;;4933337;28;19925;-66
2024/01/23 01:52:32;;;;;;;;;;;6.30;99.90;;;;;;4950693;28;20544;-67
2024/01/23 01:54:59;;;;;;;;;;;6.30;99.90;;;;;;4930811;28;20509;-69
2024/01/23 01:57:27;;;;;;;;;;;6.30;99.90;;;;;;4907884;28;19926;-69
2024/01/23 01:59:53;;;;;;;;;;;6.20;99.90;;;;;;4942606;28;19956;-69
2024/01/23 02:02:20;;;;;;;;;;;6.20;99.90;;;;;;4920149;28;19929;-69
2024/01/23 02:04:46;;;;;;;;;;;6.20;99.90;;;;;;4943112;28;19933;-70
2024/01/23 02:07:12;;;;;;;;;;;6.20;99.90;;;;;;4936239;28;19930;-70
2024/01/23 02:09:38;;;;;;;;;;;6.20;99.90;;;;;;4944966;28;19945;-69
2024/01/23 02:12:06;;;;;;;;;;;6.20;99.90;;;;;;4946315;28;19936;-69
2024/01/23 02:14:32;;;;;;;;;;;6.20;99.90;;;;;;4961794;28;19929;-70
2024/01/23 02:16:58;;;;;;;;;;;6.20;99.90;;;;;;4936141;28;19925;-69
2024/01/23 02:19:27;;;;;;;;;;;6.10;99.90;;;;;;4944173;28;21312;-71
2024/01/23 02:21:54;;;;;;;;;;;6.00;99.90;;;;;;4934885;28;19933;-70
2024/01/23 02:24:20;;;;;;;;;;;6.10;99.90;;;;;;4944536;28;19926;-70
2024/01/23 02:26:46;;;;;;;;;;;6.00;99.90;;;;;;4899259;28;20762;-70
2024/01/23 02:29:12;;;;;;;;;;;6.10;99.90;;;;;;4938171;28;19926;-70
2024/01/23 02:31:38;;;;;;;;;;;6.10;99.90;;;;;;4939368;28;19953;-69
2024/01/23 02:34:04;;;;;;;;;;;6.10;99.90;;;;;;4966212;28;19936;-71
2024/01/23 02:36:30;;;;;;;;;;;6.00;99.90;;;;;;4935868;28;19929;-71
2024/01/23 02:38:56;;;;;;;;;;;6.10;99.90;;;;;;4946954;28;19926;-70
2024/01/23 02:41:22;;;;;;;;;;;6.10;99.90;;;;;;4915694;28;19925;-72
2024/01/23 02:43:48;;;;;;;;;;;6.10;99.90;;;;;;4962728;28;19926;-69
2024/01/23 02:46:14;;;;;;;;;;;6.10;99.90;;;;;;4935617;28;20986;-69
2024/01/23 02:48:39;;;;;;;;;;;6.10;99.90;;;;;;4946435;28;19932;-70
2024/01/23 02:51:05;;;;;;;;;;;6.20;99.90;;;;;;4896446;28;20428;-70
2024/01/23 02:53:31;;;;;;;;;;;6.20;99.90;;;;;;4936630;28;20807;-69
2024/01/23 02:55:57;;;;;;;;;;;6.30;99.90;;;;;;4910615;28;19937;-69
2024/01/23 02:58:24;;;;;;;;;;;6.30;99.90;;;;;;4948127;28;19930;-69
2024/01/23 03:00:50;;;;;;;;;;;6.30;99.90;;;;;;4922170;28;19932;-69
2024/01/23 03:03:16;;;;;;;;;;;6.30;99.90;;;;;;4955222;28;19941;-68
2024/01/23 03:05:42;;;;;;;;;;;6.30;99.90;;;;;;4914677;28;20446;-69
2024/01/23 03:08:07;;;;;;;;;;;6.30;99.90;;;;;;4948940;28;20048;-69
2024/01/23 03:10:34;;;;;;;;;;;6.30;99.90;;;;;;4919981;28;19929;-69
2024/01/23 03:13:00;;;;;;;;;;;6.40;99.90;;;;;;4957578;28;19933;-69
2024/01/23 03:15:26;;;;;;;;;;;6.40;99.90;;;;;;4917201;28;19925;-69
2024/01/23 03:17:52;;;;;;;;;;;6.40;99.90;;;;;;4959768;28;19929;-69
2024/01/23 03:20:18;;;;;;;;;;;6.40;99.90;;;;;;4931536;28;19942;-70
2024/01/23 03:22:44;;;;;;;;;;;6.50;99.90;;;;;;4974611;28;21236;-69
2024/01/23 03:25:10;;;;;;;;;;;6.50;99.90;;;;;;4929954;28;20439;-69
2024/01/23 03:27:36;;;;;;;;;;;6.50;99.90;;;;;;4964365;28;19926;-69
2024/01/23 03:30:02;;;;;;;;;;;6.60;99.90;;;;;;4914338;28;20317;-69
2024/01/23 03:32:27;;;;;;;;;;;6.60;99.90;;;;;;4948130;28;20048;-70
2024/01/23 03:34:53;;;;;;;;;;;6.60;99.90;;;;;;4944399;28;19930;-69
2024/01/23 03:37:20;;;;;;;;;;;6.60;99.90;;;;;;4935569;28;20189;-70
2024/01/23 03:39:45;;;;;;;;;;;6.60;99.90;;;;;;4969115;28;19932;-70
2024/01/23 03:42:11;;;;;;;;;;;6.60;99.90;;;;;;4913934;28;19957;-69
2024/01/23 03:44:37;;;;;;;;;;;6.60;99.90;;;;;;4940181;28;19925;-70
2024/01/23 03:47:03;;;;;;;;;;;6.60;99.90;;;;;;4920504;28;19929;-70
2024/01/23 03:49:29;;;;;;;;;;;6.60;99.90;;;;;;4940910;28;19937;-70
2024/01/23 03:51:55;;;;;;;;;;;6.70;99.90;;;;;;4909430;28;19929;-70
2024/01/23 03:54:21;;;;;;;;;;;6.70;99.90;;;;;;4942002;28;19934;-70
2024/01/23 03:56:47;;;;;;;;;;;6.70;99.90;;;;;;4918094;28;20896;-70
2024/01/23 03:59:13;;;;;;;;;;;6.70;99.90;;;;;;4942473;28;19930;-69
2024/01/23 04:01:39;;;;;;;;;;;6.80;99.90;;;;;;4928984;28;19925;-69
2024/01/23 04:04:05;;;;;;;;;;;6.70;99.90;;;;;;4943619;28;19960;-70
2024/01/23 04:06:31;;;;;;;;;;;6.70;99.90;;;;;;4936014;28;19925;-70
2024/01/23 04:08:57;;;;;;;;;;;6.80;99.90;;;;;;4963945;28;20440;-70
2024/01/23 04:11:23;;;;;;;;;;;6.80;99.90;;;;;;4935685;28;19937;-70
2024/01/23 04:13:49;;;;;;;;;;;6.80;99.90;;;;;;4947747;28;19925;-70
2024/01/23 04:16:15;;;;;;;;;;;6.80;99.90;;;;;;4924232;28;20408;-70
2024/01/23 04:18:41;;;;;;;;;;;6.90;99.90;;;;;;4940156;28;19936;-70
2024/01/23 04:21:07;;;;;;;;;;;6.90;99.90;;;;;;4915945;28;20027;-69
2024/01/23 04:23:33;;;;;;;;;;;7.00;99.90;;;;;;4939803;28;20569;-69
2024/01/23 04:25:59;;;;;;;;;;;7.00;99.90;;;;;;4920207;28;19934;-68
2024/01/23 04:28:25;;;;;;;;;;;7.00;99.90;;;;;;4953474;28;19926;-69
2024/01/23 04:30:52;;;;;;;;;;;6.90;99.90;;;;;;4903959;28;19932;-71
2024/01/23 04:33:19;;;;;;;;;;;7.00;99.90;;;;;;4932684;28;20030;-70
2024/01/23 04:35:45;;;;;;;;;;;7.00;99.90;;;;;;4924082;28;21030;-70
2024/01/23 04:38:11;;;;;;;;;;;7.00;99.90;;;;;;4966977;28;19936;-70
2024/01/23 04:40:37;;;;;;;;;;;7.00;99.90;;;;;;4933752;28;19925;-69
2024/01/23 04:43:03;;;;;;;;;;;7.10;99.90;;;;;;4954134;28;19956;-69
2024/01/23 04:45:29;;;;;;;;;;;7.00;99.90;;;;;;4917504;28;19932;-70
2024/01/23 04:47:55;;;;;;;;;;;7.00;99.90;;;;;;4944115;28;19925;-70
2024/01/23 04:50:21;;;;;;;;;;;7.00;99.90;;;;;;4914556;28;20678;-70
2024/01/23 04:52:47;;;;;;;;;;;7.00;99.90;;;;;;4973221;28;19925;-70
2024/01/23 04:55:12;;;;;;;;;;;7.10;99.90;;;;;;4928383;28;20054;-70
2024/01/23 04:57:38;;;;;;;;;;;7.10;99.90;;;;;;4962239;28;19936;-70
2024/01/23 05:00:05;;;;;;;;;;;7.00;99.90;;;;;;4909955;28;19930;-70
2024/01/23 05:02:31;;;;;;;;;;;7.00;99.90;;;;;;4948307;28;20415;-70
2024/01/23 05:04:57;;;;;;;;;;;7.00;99.90;;;;;;4929477;28;19959;-71
2024/01/23 05:07:22;;;;;;;;;;;7.00;99.90;;;;;;4929420;28;20036;-69
2024/01/23 05:09:49;;;;;;;;;;;7.00;99.90;;;;;;4923830;28;19926;-69
2024/01/23 05:12:15;;;;;;;;;;;7.00;99.90;;;;;;4918931;28;19929;-69
2024/01/23 05:14:41;;;;;;;;;;;7.00;99.90;;;;;;4939574;28;21065;-70
2024/01/23 05:17:07;;;;;;;;;;;7.00;99.90;;;;;;4940306;28;19929;-69
2024/01/23 05:19:33;;;;;;;;;;;7.00;99.90;;;;;;4959565;28;20427;-70
2024/01/23 05:21:59;;;;;;;;;;;7.00;99.90;;;;;;4931406;28;19925;-69
2024/01/23 05:24:27;;;;;;;;;;;7.00;99.90;;;;;;4960890;28;19926;-69
2024/01/23 05:26:53;;;;;;;;;;;7.00;99.90;;;;;;4934837;28;21001;-69
2024/01/23 05:29:19;;;;;;;;;;;7.00;99.90;;;;;;4940761;28;19929;-71
2024/01/23 05:31:45;;;;;;;;;;;7.00;99.90;;;;;;4912719;28;20000;-68
2024/01/23 05:34:11;;;;;;;;;;;7.00;99.90;;;;;;4955332;28;19936;-69
2024/01/23 05:36:36;;;;;;;;;;;7.00;99.90;;;;;;4948806;28;19924;-70
2024/01/23 05:39:04;;;;;;;;;;;7.00;99.90;;;;;;4958527;28;19925;-70
2024/01/23 05:41:30;;;;;;;;;;;7.00;99.90;;;;;;4948747;28;19932;-70
2024/01/23 05:43:57;;;;;;;;;;;7.00;99.90;;;;;;4962514;28;19929;-70
2024/01/23 05:46:23;;;;;;;;;;;7.00;99.90;;;;;;4947719;28;19933;-70
2024/01/23 05:48:49;;;;;;;;;;;7.10;99.90;;;;;;4966547;28;19925;-70
2024/01/23 05:51:15;;;;;;;;;;;7.10;99.90;;;;;;4908322;28;20476;-69
2024/01/23 05:53:41;;;;;;;;;;;7.00;99.90;;;;;;4940632;28;19926;-69
2024/01/23 05:56:06;;;;;;;;;;;7.10;99.90;;;;;;4925704;28;19932;-69
2024/01/23 05:58:32;;;;;;;;;;;7.10;99.90;;;;;;4950013;28;19929;-69
2024/01/23 06:00:58;;;;;;;;;;;7.00;99.90;;;;;;4930935;28;20015;-70
2024/01/23 06:03:24;;;;;;;;;;;7.00;99.90;;;;;;4947757;28;19934;-69
2024/01/23 06:05:50;;;;;;;;;;;7.00;99.90;;;;;;4917647;28;20518;-70
2024/01/23 06:08:16;;;;;;;;;;;7.00;99.90;;;;;;4964922;28;19925;-69
2024/01/23 06:10:42;;;;;;;;;;;7.00;99.90;;;;;;4943278;28;19924;-70
2024/01/23 06:13:08;;;;;;;;;;;7.00;99.90;;;;;;4979675;28;20491;-70
2024/01/23 06:15:36;;;;;;;;;;;7.00;99.90;;;;;;4931508;28;21059;-70
2024/01/23 06:18:02;;;;;;;;;;;7.00;99.90;;;;;;4949731;28;19925;-69
2024/01/23 06:20:28;;;;;;;;;;;7.00;99.90;;;;;;4913215;28;19936;-69
2024/01/23 06:22:54;;;;;;;;;;;7.00;99.90;;;;;;4938718;28;19934;-71
2024/01/23 06:25:20;;;;;;;;;;;6.90;99.90;;;;;;4919337;28;19934;-70
2024/01/23 06:27:46;;;;;;;;;;;6.90;99.90;;;;;;4958817;28;19936;-71
2024/01/23 06:30:13;;;;;;;;;;;6.90;99.90;;;;;;4932012;28;19932;-71
2024/01/23 06:32:39;;;;;;;;;;;6.80;99.90;;;;;;4950730;28;19952;-70
2024/01/23 06:35:06;;;;;;;;;;;6.80;99.90;;;;;;4916251;28;19940;-71
2024/01/23 06:37:32;;;;;;;;;;;6.70;99.90;;;;;;4946664;28;19925;-71
2024/01/23 06:39:58;;;;;;;;;;;6.70;99.90;;;;;;4952104;28;19968;-71
2024/01/23 06:42:24;;;;;;;;;;;6.60;99.90;;;;;;4939593;28;20705;-71
2024/01/23 06:44:50;;;;;;;;;;;6.60;99.90;;;;;;4960951;28;19926;-70
2024/01/23 06:47:17;;;;;;;;;;;6.60;99.90;;;;;;4956046;28;20479;-70
2024/01/23 06:49:42;;;;;;;;;;;6.50;99.90;;;;;;4960699;28;19935;-70
2024/01/23 06:52:08;;;;;;;;;;;6.50;99.90;;;;;;4955426;28;21176;-70
2024/01/23 06:54:34;;;;;;;;;;;6.40;99.90;;;;;;4961947;28;21251;-69
2024/01/23 06:57:00;;;;;;;;;;;6.40;99.90;;;;;;4953813;28;19925;-70
2024/01/23 06:59:27;;;;;;;;;;;6.40;99.90;;;;;;4962805;28;20553;-71
2024/01/23 07:01:53;;;;;;;;;;;6.40;99.90;;;;;;4923973;28;19925;-70
2024/01/23 07:04:18;;;;;;;;;;;6.30;99.90;;;;;;4961260;28;20013;-71
2024/01/23 07:06:44;;;;;;;;;;;6.20;99.90;;;;;;4949341;28;19951;-71
2024/01/23 07:09:11;;;;;;;;;;;6.20;99.90;;;;;;4966395;28;19933;-71
2024/01/23 07:11:40;;;;;;;;;;;6.20;99.90;;;;;;4936084;28;19936;-70
2024/01/23 07:14:06;;;;;;;;;;;6.10;99.90;;;;;;4957787;28;21029;-70
2024/01/23 07:16:32;;;;;;;;;;;6.10;99.90;;;;;;4907668;28;19933;-70
2024/01/23 07:18:58;;;;;;;;;;;6.00;99.90;;;;;;4963037;28;19929;-71
2024/01/23 07:21:24;;;;;;;;;;;6.00;99.90;;;;;;4930363;28;19925;-70
2024/01/23 07:23:50;;;;;;;;;;;6.00;99.90;;;;;;4955231;28;19929;-72
2024/01/23 07:26:16;;;;;;;;;;;5.90;99.90;;;;;;4949109;28;19940;-71
2024/01/23 07:28:42;;;;;;;;;;;6.00;99.90;;;;;;4976447;28;20266;-70
2024/01/23 07:31:11;;;;;;;;;;;5.90;99.90;;;;;;4948424;28;20399;-70
2024/01/23 07:33:37;;;;;;;;;;;5.90;99.90;;;;;;4975409;28;20731;-71
2024/01/23 07:36:03;;;;;;;;;;;5.90;99.90;;;;;;4945597;28;19925;-71
2024/01/23 07:38:29;;;;;;;;;;;5.80;99.90;;;;;;4974508;28;19926;-71
2024/01/23 07:40:55;;;;;;;;;;;5.80;99.90;;;;;;4945990;28;20367;-70
2024/01/23 07:43:25;;;;;;;;;;;5.80;99.90;;;;;;4975221;28;19929;-71
2024/01/23 07:45:51;;;;;;;;;;;5.80;99.90;;;;;;4931078;28;19932;-69
2024/01/23 07:48:17;;;;;;;;;;;5.90;99.90;;;;;;4967199;28;20883;-70
2024/01/23 07:50:43;;;;;;;;;;;5.80;99.90;;;;;;4937353;28;19933;-70
2024/01/23 07:53:09;;;;;;;;;;;5.80;99.90;;;;;;4956882;28;19925;-70
2024/01/23 07:55:35;;;;;;;;;;;5.80;99.90;;;;;;4941352;28;19948;-70
2024/01/23 07:58:01;;;;;;;;;;;5.90;99.90;;;;;;4966755;28;19934;-71
2024/01/23 08:00:27;;;;;;;;;;;5.80;99.90;;;;;;4941112;28;20115;-69
2024/01/23 08:02:53;;;;;;;;;;;5.90;99.90;;;;;;4980964;28;19936;-70
2024/01/23 08:05:19;;;;;;;;;;;5.90;99.90;;;;;;4940845;28;19942;-70
2024/01/23 08:07:45;;;;;;;;;;;5.80;99.90;;;;;;4985434;28;19937;-70
2024/01/23 08:10:11;;;;;;;;;;;5.80;99.90;;;;;;4933542;28;19932;-70
2024/01/23 08:12:37;;;;;;;;;;;5.80;99.90;;;;;;4967980;28;19925;-70
2024/01/23 08:15:03;;;;;;;;;;;5.80;99.90;;;;;;4937391;28;19932;-70
2024/01/23 08:17:29;;;;;;;;;;;5.70;99.90;;;;;;4968940;28;19934;-69
2024/01/23 08:19:55;;;;;;;;;;;5.70;99.90;;;;;;4963824;28;19925;-69
2024/01/23 08:22:21;;;;;;;;;;;5.80;99.90;;;;;;4935402;28;19925;-70
2024/01/23 08:24:47;;;;;;;;;;;5.80;99.90;;;;;;4947348;28;19934;-70
2024/01/23 08:27:13;;;;;;;;;;;5.80;99.90;;;;;;4933035;28;19935;-70
2024/01/23 08:29:39;;;;;;;;;;;5.70;99.90;;;;;;4964322;28;20422;-70
2024/01/23 08:32:05;;;;;;;;;;;5.70;99.90;;;;;;4942907;28;20010;-70
2024/01/23 08:34:31;;;;;;;;;;;5.80;99.90;;;;;;4963932;28;19932;-71
2024/01/23 08:36:57;;;;;;;;;;;5.80;99.90;;;;;;4955605;28;20030;-70
2024/01/23 08:39:23;;;;;;;;;;;5.70;99.90;;;;;;4965632;28;20642;-70
2024/01/23 08:41:52;;;;;;;;;;;5.80;99.90;;;;;;4955074;28;19925;-69
2024/01/23 08:44:18;;;;;;;;;;;5.80;99.90;;;;;;4963568;28;19930;-69
2024/01/23 08:46:45;;;;;;;;;;;5.80;99.90;;;;;;4943807;28;20545;-70
2024/01/23 08:49:11;;;;;;;;;;;5.80;99.90;;;;;;4967896;28;19926;-71
2024/01/23 08:51:37;;;;;;;;;;;5.80;99.90;;;;;;4952213;28;20019;-70
2024/01/23 08:54:03;;;;;;;;;;;5.80;99.90;;;;;;4967655;28;19929;-71
2024/01/23 08:56:29;;;;;;;;;;;5.80;99.90;;;;;;4922113;28;21127;-72
2024/01/23 08:58:55;;;;;;;;;;;5.80;99.90;;;;;;4958051;28;19925;-70
2024/01/23 09:01:22;;;;;;;;;;;5.80;99.90;;;;;;4933027;28;19937;-70
2024/01/23 09:03:48;;;;;;;;;;;5.90;99.90;;;;;;4966152;28;19929;-70
2024/01/23 09:06:14;;;;;;;;;;;5.90;99.90;;;;;;4943304;28;19926;-70
2024/01/23 09:08:41;;;;;;;;;;;5.90;99.90;;;;;;4966809;28;19932;-72
2024/01/23 09:11:07;;;;;;;;;;;6.00;99.90;;;;;;4935565;28;19933;-70
2024/01/23 09:13:33;;;;;;;;;;;6.00;99.90;;;;;;4966608;28;19929;-70
2024/01/23 09:15:59;;;;;;;;;;;6.10;99.90;;;;;;4939976;28;20211;-70
2024/01/23 09:18:27;;;;;;;;;;;6.10;99.90;;;;;;4965047;28;19952;-70
2024/01/23 09:20:53;;;;;;;;;;;6.10;99.90;;;;;;4930728;28;19925;-70
2024/01/23 09:23:19;;;;;;;;;;;6.10;99.90;;;;;;4952890;28;19940;-70
2024/01/23 09:25:45;;;;;;;;;;;6.20;99.90;;;;;;4929405;28;20934;-71
2024/01/23 09:28:11;;;;;;;;;;;6.20;99.90;;;;;;4978132;28;19937;-70
2024/01/23 09:30:37;;;;;;;;;;;6.20;99.90;;;;;;4945347;28;19933;-70
2024/01/23 09:33:03;;;;;;;;;;;6.30;99.90;;;;;;4984011;28;19931;-70
2024/01/23 09:35:30;;;;;;;;;;;6.30;99.90;;;;;;4937934;28;19925;-70
2024/01/23 09:37:56;;;;;;;;;;;6.40;99.90;;;;;;4937545;28;19925;-70
2024/01/23 09:40:23;;;;;;;;;;;6.40;99.90;;;;;;4935964;28;21578;-70
2024/01/23 09:42:51;;;;;;;;;;;6.40;99.90;;;;;;4961253;28;19925;-70
2024/01/23 09:45:18;;;;;;;;;;;6.50;99.90;;;;;;4935076;28;19939;-71
2024/01/23 09:47:44;;;;;;;;;;;6.50;99.90;;;;;;4966730;28;20679;-71
2024/01/23 09:50:12;;;;;;;;;;;6.60;99.90;;;;;;4918846;28;19932;-71
2024/01/23 09:52:41;;;;;;;;;;;6.70;99.90;;;;;;4966899;28;19925;-71
2024/01/23 09:55:07;;;;;;;;;;;6.80;99.90;;;;;;4915268;28;19940;-71
2024/01/23 09:57:33;;;;;;;;;;;7.00;99.90;;;;;;4983302;28;20681;-71
2024/01/23 09:59:59;;;;;;;;;;;7.00;99.90;;;;;;4948793;28;20413;-71
2024/01/23 10:02:25;;;;;;;;;;;7.00;99.90;;;;;;4939360;28;19929;-71
2024/01/23 10:04:52;;;;;;;;;;;7.00;99.90;;;;;;4957398;28;20483;-72
2024/01/23 10:07:18;;;;;;;;;;;7.00;99.90;;;;;;4933497;28;20025;-71
2024/01/23 10:09:47;;;;;;;;;;;7.00;99.90;;;;;;4961053;28;20499;-71
2024/01/23 10:12:13;;;;;;;;;;;7.00;99.90;;;;;;4954327;28;19929;-70
2024/01/23 10:14:45;;;;;;;;;;;7.00;99.90;;;;;;4963611;28;19930;-70
2024/01/23 10:17:11;;;;;;;;;;;7.00;99.90;;;;;;4928465;28;20494;-71
2024/01/23 10:19:37;;;;;;;;;;;7.10;99.90;;;;;;4964176;28;19936;-71
2024/01/23 10:22:06;;;;;;;;;;;7.20;99.90;;;;;;4936807;28;19926;-71
2024/01/23 10:24:32;;;;;;;;;;;7.20;99.90;;;;;;4963498;28;20033;-71
2024/01/23 10:26:58;;;;;;;;;;;7.30;99.90;;;;;;4957835;28;21038;-70
2024/01/23 10:29:24;;;;;;;;;;;7.30;99.90;;;;;;4965542;28;19925;-70
2024/01/23 10:31:50;;;;;;;;;;;7.30;99.90;;;;;;4957712;28;20004;-71
2024/01/23 10:34:16;;;;;;;;;;;7.40;99.90;;;;;;4964501;28;19933;-71
2024/01/23 10:36:42;;;;;;;;;;;7.40;99.90;;;;;;4934995;28;19925;-71
2024/01/23 10:39:10;;;;;;;;;;;7.40;99.90;;;;;;4964650;28;19933;-71
2024/01/23 10:41:37;;;;;;;;;;;7.40;99.90;;;;;;4953646;28;19971;-71
2024/01/23 10:44:04;;;;;;;;;;;7.50;99.90;;;;;;4969449;28;19929;-71
2024/01/23 10:46:30;;;;;;;;;;;7.50;99.90;;;;;;4930066;28;19926;-70
2024/01/23 10:48:56;;;;;;;;;;;7.60;99.90;;;;;;4967179;28;20545;-70
2024/01/23 10:51:27;;;;;;;;;;;7.60;99.90;;;;;;4940582;28;20548;-70
2024/01/23 10:53:57;;;;;;;;;;;7.70;99.90;;;;;;4970838;28;20546;-70
2024/01/23 10:56:24;;;;;;;;;;;7.60;99.90;;;;;;4932899;28;19936;-70
2024/01/23 10:58:55;;;;;;;;;;;7.70;99.90;;;;;;4944491;28;20734;-69
2024/01/23 11:01:22;;;;;;;;;;;7.70;99.90;;;;;;4939237;28;19936;-70
2024/01/23 11:03:48;;;;;;;;;;;7.90;99.90;;;;;;4970779;28;19930;-70
2024/01/23 11:06:22;;;;;;;;;;;7.90;99.90;;;;;;4939427;28;19929;-70
2024/01/23 11:08:51;;;;;;;;;;;7.90;99.90;;;;;;4966175;28;20642;-69
2024/01/23 11:11:23;;;;;;;;;;;7.90;99.90;;;;;;4940675;28;19925;-69
2024/01/23 11:13:59;;;;;;;;;;;7.90;99.90;;;;;;4973627;28;19948;-70
2024/01/23 11:16:25;;;;;;;;;;;8.00;99.90;;;;;;4943280;28;21371;-69
2024/01/23 11:18:53;;;;;;;;;;;7.90;99.90;;;;;;4968513;28;19925;-70
2024/01/23 11:21:22;;;;;;;;;;;8.00;99.90;;;;;;4945768;28;19932;-70
2024/01/23 11:23:57;;;;;;;;;;;8.00;99.90;;;;;;4971942;28;20627;-69
2024/01/23 11:26:26;;;;;;;;;;;8.10;99.90;;;;;;4934840;28;20490;-70
2024/01/23 11:28:53;;;;;;;;;;;8.10;99.90;;;;;;4957765;28;19930;-70
2024/01/23 11:31:23;;;;;;;;;;;8.10;99.90;;;;;;4947219;28;19992;-70
2024/01/23 11:33:49;;;;;;;;;;;8.10;99.90;;;;;;4967514;28;19929;-71
2024/01/23 11:36:21;;;;;;;;;;;8.10;99.90;;;;;;4944805;28;19929;-70
2024/01/23 11:38:51;;;;;;;;;;;8.10;99.90;;;;;;4963167;28;19925;-70
2024/01/23 11:41:22;;;;;;;;;;;8.20;99.90;;;;;;4922382;28;19929;-70
2024/01/23 11:43:53;;;;;;;;;;;8.20;99.90;;;;;;4962214;28;20416;-70
2024/01/23 11:46:20;;;;;;;;;;;8.20;99.90;;;;;;4922976;28;20670;-70
2024/01/23 11:48:47;;;;;;;;;;;8.20;99.90;;;;;;4956728;28;19932;-70
2024/01/23 11:51:13;;;;;;;;;;;8.10;99.90;;;;;;4921924;28;19929;-70
2024/01/23 11:53:40;;;;;;;;;;;8.10;99.90;;;;;;4948722;28;19932;-70
2024/01/23 11:56:07;;;;;;;;;;;8.20;99.90;;;;;;4931004;28;19925;-70
2024/01/23 11:58:33;;;;;;;;;;;8.20;99.90;;;;;;4961393;28;19929;-70
2024/01/23 12:01:01;;;;;;;;;;;8.30;99.90;;;;;;4942968;28;19932;-71
2024/01/23 12:03:28;;;;;;;;;;;8.30;99.90;;;;;;4962526;28;21050;-70
2024/01/23 12:05:54;;;;;;;;;;;8.30;99.90;;;;;;4941880;28;19925;-70
2024/01/23 12:08:22;;;;;;;;;;;8.40;99.90;;;;;;4973758;28;19929;-70
2024/01/23 12:10:48;;;;;;;;;;;8.40;99.90;;;;;;4936372;28;19925;-69
2024/01/23 12:13:14;;;;;;;;;;;8.50;99.90;;;;;;4973502;28;19925;-69
2024/01/23 12:15:40;;;;;;;;;;;8.60;99.90;;;;;;4924628;28;19969;-69
2024/01/23 12:18:11;;;;;;;;;;;8.50;99.90;;;;;;4959575;28;19929;-69
2024/01/23 12:20:37;;;;;;;;;;;8.60;99.90;;;;;;4929333;28;20908;-69
2024/01/23 12:23:03;;;;;;;;;;;8.50;99.90;;;;;;4962661;28;19926;-70
2024/01/23 12:25:29;;;;;;;;;;;8.50;99.90;;;;;;4927780;28;19929;-70
2024/01/23 12:27:55;;;;;;;;;;;8.70;99.90;;;;;;4964400;28;20928;-70
2024/01/23 12:30:21;;;;;;;;;;;9.60;99.90;;;;;;4929918;28;20384;-69
2024/01/23 12:32:48;;;;;;;;;;;10.10;99.90;;;;;;4963549;28;19925;-69
2024/01/23 12:35:14;;;;;;;;;;;10.60;99.90;;;;;;4930892;28;19933;-70
2024/01/23 12:37:40;;;;;;;;;;;11.00;99.90;;;;;;4948405;28;19937;-69
2024/01/23 12:40:10;;;;;;;;;;;10.90;99.90;;;;;;4949314;28;20854;-70
2024/01/23 12:42:39;;;;;;;;;;;10.90;99.90;;;;;;4947400;28;19936;-70
2024/01/23 12:45:09;;;;;;;;;;;11.00;99.90;;;;;;4934599;28;19929;-69
2024/01/23 12:47:36;;;;;;;;;;;11.10;99.90;;;;;;4979764;28;19936;-69
2024/01/23 12:50:03;;;;;;;;;;;10.30;99.90;;;;;;4934314;28;19932;-69
2024/01/23 12:52:30;;;;;;;;;;;9.90;99.90;;;;;;4964302;28;19932;-69
2024/01/23 12:54:56;;;;;;;;;;;9.50;99.90;;;;;;4957988;28;20974;-69
2024/01/23 12:57:22;;;;;;;;;;;9.30;99.90;;;;;;4941579;28;19937;-69
2024/01/23 12:59:48;;;;;;;;;;;9.00;99.90;;;;;;4961875;28;21033;-70
2024/01/23 13:02:14;;;;;;;;;;;8.80;99.90;;;;;;4941284;28;19948;-71
2024/01/23 13:04:40;;;;;;;;;;;8.70;99.90;;;;;;4964371;28;21123;-71
2024/01/23 13:07:08;;;;;;;;;;;8.60;99.90;;;;;;4922950;28;20430;-70
2024/01/23 13:09:34;;;;;;;;;;;8.50;99.90;;;;;;4961534;28;20972;-70
2024/01/23 13:12:00;;;;;;;;;;;8.40;99.90;;;;;;4933934;28;19928;-70
2024/01/23 13:14:26;;;;;;;;;;;8.30;99.90;;;;;;4963916;28;19937;-71
2024/01/23 13:16:52;;;;;;;;;;;8.30;99.90;;;;;;4923806;28;19929;-69
2024/01/23 13:19:19;;;;;;;;;;;8.30;99.90;;;;;;4964643;28;21232;-70
2024/01/23 13:21:45;;;;;;;;;;;8.20;99.90;;;;;;4954516;28;19937;-69
2024/01/23 13:24:11;;;;;;;;;;;8.20;99.90;;;;;;4954516;28;19941;-70
2024/01/23 13:26:37;;;;;;;;;;;8.20;99.90;;;;;;4926606;28;19925;-70
2024/01/23 13:29:03;;;;;;;;;;;8.30;99.90;;;;;;4967572;28;19925;-70
2024/01/23 13:31:34;;;;;;;;;;;8.30;99.90;;;;;;4951918;28;20403;-71
2024/01/23 13:34:01;;;;;;;;;;;8.30;99.90;;;;;;4969070;28;19925;-69
2024/01/23 13:36:27;;;;;;;;;;;8.30;99.90;;;;;;4943977;28;19935;-70
2024/01/23 13:38:53;;;;;;;;;;;8.20;99.90;;;;;;4967296;28;19960;-69
2024/01/23 13:41:19;;;;;;;;;;;8.20;99.90;;;;;;4925722;28;19929;-70
2024/01/23 13:43:46;;;;;;;;;;;8.20;99.90;;;;;;4965741;28;19953;-69
2024/01/23 13:46:11;;;;;;;;;;;8.10;99.90;;;;;;4945986;28;19929;-69
2024/01/23 13:48:37;;;;;;;;;;;8.00;99.90;;;;;;4971464;28;19936;-70
2024/01/23 13:51:04;;;;;;;;;;;8.00;99.90;;;;;;4939481;28;20576;-69
2024/01/23 13:53:30;;;;;;;;;;;8.10;99.90;;;;;;4964063;28;19925;-70
2024/01/23 13:55:56;;;;;;;;;;;8.00;99.90;;;;;;4934024;28;20335;-69
2024/01/23 13:58:22;;;;;;;;;;;8.00;99.90;;;;;;4952367;28;20216;-69
2024/01/23 14:00:48;;;;;;;;;;;8.00;99.90;;;;;;4943329;28;20588;-70
2024/01/23 14:03:14;;;;;;;;;;;8.00;99.90;;;;;;4959546;28;19929;-69
2024/01/23 14:05:40;;;;;;;;;;;8.00;99.90;;;;;;4938024;28;19933;-70
2024/01/23 14:08:07;;;;;;;;;;;8.00;99.90;;;;;;4969779;28;20119;-70
2024/01/23 14:10:34;;;;;;;;;;;8.00;99.90;;;;;;4930989;28;20019;-70
2024/01/23 14:13:00;;;;;;;;;;;8.00;99.90;;;;;;4964354;28;19933;-70
2024/01/23 14:15:26;;;;;;;;;;;7.90;99.90;;;;;;4934466;28;19976;-70
2024/01/23 14:17:51;;;;;;;;;;;7.90;99.90;;;;;;4968764;28;19930;-70
2024/01/23 14:20:17;;;;;;;;;;;7.90;99.90;;;;;;4929540;28;20557;-70
2024/01/23 14:22:44;;;;;;;;;;;7.90;99.90;;;;;;4982912;28;19925;-71